createdAt,value
2019-05-21T00:00:13.524Z,22.77
2019-05-21T00:02:40.441Z,24.83
2019-05-21T00:05:07.511Z,22.80
2019-05-21T00:07:34.520Z,21.83
2019-05-21T00:10:01.480Z,21.87
2019-05-21T00:12:28.386Z,21.00
2019-05-21T00:14:55.426Z,20.30
2019-05-21T00:17:22.412Z,21.90
2019-05-21T00:19:49.334Z,21.27
2019-05-21T00:22:16.262Z,19.80
2019-05-21T00:24:43.511Z,19.33
2019-05-21T00:27:10.478Z,22.93
2019-05-21T00:30:14.000Z,17.30
2019-05-21T00:33:17.669Z,16.30
2019-05-21T00:36:23.180Z,17.03
2019-05-21T00:39:26.960Z,17.47
2019-05-21T00:41:58.792Z,15.57
2019-05-21T00:44:25.726Z,16.17
2019-05-21T00:46:52.700Z,15.47
2019-05-21T00:49:19.852Z,15.30
2019-05-21T00:51:46.839Z,13.80
2019-05-21T00:54:13.879Z,13.07
2019-05-21T00:56:40.975Z,11.80
2019-05-21T00:59:08.201Z,13.13
2019-05-21T01:01:35.275Z,11.23
2019-05-21T01:04:02.528Z,11.10
2019-05-21T01:06:29.670Z,11.80
2019-05-21T01:08:56.833Z,11.03
2019-05-21T01:11:23.939Z,10.30
2019-05-21T01:13:51.490Z,9.50
2019-05-21T01:16:18.566Z,9.13
2019-05-21T01:18:45.687Z,8.40
2019-05-21T01:21:12.860Z,9.03
2019-05-21T01:23:40.467Z,8.90
2019-05-21T01:26:08.634Z,7.40
2019-05-21T01:28:35.738Z,7.03
2019-05-21T01:31:03.246Z,7.50
2019-05-21T01:33:30.363Z,8.33
2019-05-21T01:35:57.713Z,8.07
2019-05-21T01:38:24.849Z,8.50
2019-05-21T01:40:51.878Z,7.27
2019-05-21T01:43:19.153Z,8.23
2019-05-21T01:45:46.186Z,7.70
2019-05-21T01:48:13.257Z,7.23
2019-05-21T01:50:40.405Z,8.60
2019-05-21T01:53:07.396Z,7.97
2019-05-21T01:55:34.497Z,7.77
2019-05-21T01:58:01.689Z,6.90
2019-05-21T02:00:28.864Z,7.60
2019-05-21T02:02:56.028Z,7.10
2019-05-21T02:05:32.798Z,6.47
2019-05-21T02:07:52.029Z,8.10
2019-05-21T02:10:19.342Z,7.13
2019-05-21T02:12:46.398Z,6.13
2019-05-21T02:15:13.829Z,6.50
2019-05-21T02:17:40.912Z,6.33
2019-05-21T02:20:07.962Z,5.70
2019-05-21T02:22:35.092Z,5.40
2019-05-21T02:25:02.778Z,5.00
2019-05-21T02:27:29.811Z,5.17
2019-05-21T02:29:56.758Z,4.87
2019-05-21T02:32:23.920Z,4.60
2019-05-21T02:34:50.918Z,4.57
2019-05-21T02:37:18.098Z,4.00
2019-05-21T02:39:45.199Z,4.13
2019-05-21T02:42:12.368Z,3.70
2019-05-21T02:44:39.451Z,3.30
2019-05-21T02:47:06.615Z,3.10
2019-05-21T02:49:33.644Z,2.90
2019-05-21T02:52:00.944Z,3.87
2019-05-21T02:54:40.355Z,2.87
2019-05-21T02:56:57.184Z,2.80
2019-05-21T02:59:24.330Z,3.67
2019-05-21T03:01:53.292Z,3.07
2019-05-21T03:04:20.241Z,3.00
2019-05-21T03:06:47.392Z,3.83
2019-05-21T03:09:14.569Z,2.90
2019-05-21T03:11:41.974Z,2.70
2019-05-21T03:14:09.115Z,3.53
2019-05-21T03:16:36.103Z,3.30
2019-05-21T03:19:03.341Z,3.67
2019-05-21T03:21:30.573Z,3.10
2019-05-21T03:23:58.020Z,2.50
2019-05-21T03:26:25.459Z,2.93
2019-05-21T03:28:52.727Z,2.30
2019-05-21T03:31:19.968Z,2.67
2019-05-21T03:33:47.113Z,2.23
2019-05-21T03:36:31.668Z,2.20
2019-05-21T03:38:43.171Z,2.37
2019-05-21T03:41:10.348Z,2.60
2019-05-21T03:43:37.406Z,2.03
2019-05-21T03:46:04.523Z,2.30
2019-05-21T03:48:31.642Z,1.73
2019-05-21T03:50:58.793Z,1.90
2019-05-21T03:53:25.904Z,2.27
2019-05-21T03:55:53.062Z,2.40
2019-05-21T03:58:20.132Z,1.80
2019-05-21T04:00:47.223Z,1.97
2019-05-21T04:03:14.691Z,2.27
2019-05-21T04:05:41.988Z,2.07
2019-05-21T04:08:10.273Z,2.40
2019-05-21T04:10:37.320Z,1.80
2019-05-21T04:13:05.466Z,1.80
2019-05-21T04:15:33.430Z,1.80
2019-05-21T04:18:02.425Z,2.10
2019-05-21T04:20:29.499Z,1.90
2019-05-21T04:22:56.531Z,2.00
2019-05-21T04:25:23.737Z,1.87
2019-05-21T04:27:50.823Z,1.67
2019-05-21T04:30:18.313Z,1.83
2019-05-21T04:32:45.431Z,2.60
2019-05-21T04:35:12.496Z,2.00
2019-05-21T04:37:40.309Z,4.43
2019-05-21T04:40:11.022Z,2.77
2019-05-21T04:42:38.648Z,1.97
2019-05-21T04:45:06.085Z,2.40
2019-05-21T04:47:33.589Z,2.47
2019-05-21T04:50:01.093Z,2.40
2019-05-21T04:52:28.239Z,2.73
2019-05-21T04:54:55.344Z,2.33
2019-05-21T04:57:22.407Z,2.20
2019-05-21T04:59:49.570Z,2.23
2019-05-21T05:02:16.647Z,2.53
2019-05-21T05:04:43.829Z,1.93
2019-05-21T05:07:26.752Z,2.20
2019-05-21T05:09:40.296Z,2.27
2019-05-21T05:12:07.302Z,2.40
2019-05-21T05:14:34.574Z,2.27
2019-05-21T05:17:01.581Z,2.13
2019-05-21T05:19:29.338Z,2.00
2019-05-21T05:21:56.410Z,1.90
2019-05-21T05:24:23.855Z,1.80
2019-05-21T05:26:50.928Z,2.93
2019-05-21T05:29:19.277Z,1.63
2019-05-21T05:31:46.484Z,2.10
2019-05-21T05:34:13.904Z,1.87
2019-05-21T05:36:41.434Z,2.70
2019-05-21T05:39:08.454Z,2.20
2019-05-21T05:41:35.424Z,2.20
2019-05-21T05:44:02.676Z,2.10
2019-05-21T05:46:30.068Z,2.03
2019-05-21T05:49:01.823Z,2.20
2019-05-21T05:51:29.239Z,1.90
2019-05-21T05:53:57.051Z,1.77
2019-05-21T05:56:25.653Z,2.33
2019-05-21T05:58:52.710Z,1.80
2019-05-21T06:01:20.035Z,2.27
2019-05-21T06:03:47.091Z,2.20
2019-05-21T06:06:14.315Z,2.10
2019-05-21T06:08:41.580Z,2.27
2019-05-21T06:11:08.759Z,2.17
2019-05-21T06:13:35.810Z,2.70
2019-05-21T06:16:03.320Z,2.37
2019-05-21T06:18:30.527Z,2.40
2019-05-21T06:20:57.739Z,2.23
2019-05-21T06:23:24.803Z,2.40
2019-05-21T06:25:51.964Z,2.07
2019-05-21T06:28:18.961Z,2.30
2019-05-21T06:30:46.165Z,2.20
2019-05-21T06:33:13.237Z,2.17
2019-05-21T06:35:40.327Z,2.03
2019-05-21T06:38:17.135Z,2.77
2019-05-21T06:40:38.436Z,2.30
2019-05-21T06:43:05.331Z,2.40
2019-05-21T06:45:32.506Z,2.40
2019-05-21T06:47:59.494Z,2.60
2019-05-21T06:50:26.634Z,2.60
2019-05-21T06:52:53.689Z,2.23
2019-05-21T06:55:20.625Z,2.20
2019-05-21T06:57:47.672Z,2.67
2019-05-21T07:00:15.235Z,2.43
2019-05-21T07:02:42.238Z,2.40
2019-05-21T07:05:09.356Z,2.63
2019-05-21T07:07:36.539Z,2.77
2019-05-21T07:10:04.513Z,2.93
2019-05-21T07:12:31.501Z,2.53
2019-05-21T07:14:58.620Z,2.40
2019-05-21T07:17:25.701Z,2.73
2019-05-21T07:19:52.831Z,2.40
2019-05-21T07:22:19.904Z,2.50
2019-05-21T07:24:47.013Z,2.70
2019-05-21T07:27:14.102Z,2.53
2019-05-21T07:29:41.158Z,2.20
2019-05-21T07:32:08.287Z,2.53
2019-05-21T07:34:35.442Z,2.20
2019-05-21T07:37:02.683Z,1.80
2019-05-21T07:39:29.730Z,2.37
2019-05-21T07:41:56.699Z,2.20
2019-05-21T07:44:23.819Z,1.87
2019-05-21T07:46:50.740Z,1.97
2019-05-21T07:49:17.708Z,1.87
2019-05-21T07:51:44.686Z,2.00
2019-05-21T07:54:11.753Z,1.70
2019-05-21T07:56:38.716Z,2.20
2019-05-21T07:59:05.653Z,1.77
2019-05-21T08:01:32.638Z,2.17
2019-05-21T08:03:59.665Z,2.13
2019-05-21T08:06:26.702Z,2.10
2019-05-21T08:09:11.414Z,2.10
2019-05-21T08:11:22.585Z,2.30
2019-05-21T08:13:49.626Z,2.50
2019-05-21T08:16:16.525Z,2.57
2019-05-21T08:18:43.586Z,2.90
2019-05-21T08:21:10.635Z,2.70
2019-05-21T08:23:37.584Z,2.60
2019-05-21T08:26:04.473Z,3.23
2019-05-21T08:28:31.432Z,3.23
2019-05-21T08:31:02.057Z,2.90
2019-05-21T08:33:27.306Z,3.30
2019-05-21T08:35:54.355Z,2.93
2019-05-21T08:38:21.284Z,2.70
2019-05-21T08:40:48.277Z,2.70
2019-05-21T08:43:15.384Z,2.90
2019-05-21T08:45:42.391Z,3.00
2019-05-21T08:48:09.484Z,2.90
2019-05-21T08:50:36.828Z,2.87
2019-05-21T08:53:03.976Z,3.03
2019-05-21T08:55:30.932Z,2.80
2019-05-21T08:58:06.900Z,2.63
2019-05-21T09:00:27.076Z,2.40
2019-05-21T09:02:54.120Z,2.73
2019-05-21T09:05:21.158Z,2.40
2019-05-21T09:07:53.188Z,2.20
2019-05-21T09:10:17.536Z,2.40
2019-05-21T09:12:44.491Z,2.03
2019-05-21T09:15:12.444Z,2.30
2019-05-21T09:17:39.420Z,2.33
2019-05-21T09:20:08.097Z,3.00
2019-05-21T09:22:35.161Z,3.07
2019-05-21T09:25:02.687Z,2.67
2019-05-21T09:27:30.104Z,2.60
2019-05-21T09:29:57.125Z,2.60
2019-05-21T09:32:24.025Z,2.40
2019-05-21T09:34:51.043Z,3.10
2019-05-21T09:37:20.096Z,3.03
2019-05-21T09:39:46.840Z,3.30
2019-05-21T09:42:13.765Z,2.90
2019-05-21T09:44:41.245Z,2.73
2019-05-21T09:47:08.114Z,3.13
2019-05-21T09:49:35.029Z,3.30
2019-05-21T09:52:01.989Z,3.10
2019-05-21T09:54:29.042Z,3.13
2019-05-21T09:56:56.006Z,3.03
2019-05-21T09:59:41.554Z,3.90
2019-05-21T10:02:22.688Z,2.90
2019-05-21T10:04:49.694Z,3.00
2019-05-21T10:07:16.701Z,2.87
2019-05-21T10:09:43.690Z,2.97
2019-05-21T10:12:10.638Z,3.00
2019-05-21T10:14:37.530Z,3.40
2019-05-21T10:17:04.524Z,2.93
2019-05-21T10:19:31.513Z,2.63
2019-05-21T10:21:58.517Z,3.13
2019-05-21T10:24:25.425Z,3.00
2019-05-21T10:26:52.470Z,2.50
2019-05-21T10:29:19.441Z,2.20
2019-05-21T10:31:46.376Z,2.33
2019-05-21T10:34:13.659Z,2.57
2019-05-21T10:36:40.858Z,2.37
2019-05-21T10:39:07.808Z,2.33
2019-05-21T10:41:34.685Z,2.27
2019-05-21T10:44:01.699Z,2.43
2019-05-21T10:46:28.750Z,2.03
2019-05-21T10:48:55.709Z,2.57
2019-05-21T10:51:22.767Z,2.17
2019-05-21T10:53:49.800Z,2.50
2019-05-21T10:56:16.682Z,2.40
2019-05-21T10:58:43.776Z,2.17
2019-05-21T11:01:12.616Z,2.10
2019-05-21T11:03:44.681Z,2.27
2019-05-21T11:06:12.140Z,2.53
2019-05-21T11:08:39.327Z,2.20
2019-05-21T11:11:06.642Z,2.07
2019-05-21T11:13:33.667Z,2.37
2019-05-21T11:16:00.720Z,1.80
2019-05-21T11:18:27.832Z,2.30
2019-05-21T11:20:54.810Z,2.30
2019-05-21T11:23:21.850Z,2.70
2019-05-21T11:25:48.971Z,2.37
2019-05-21T11:28:15.989Z,2.57
2019-05-21T11:30:43.133Z,2.70
2019-05-21T11:33:10.187Z,2.40
2019-05-21T11:35:37.327Z,2.83
2019-05-21T11:38:04.440Z,3.80
2019-05-21T11:40:31.481Z,3.17
2019-05-21T11:42:58.551Z,2.97
2019-05-21T11:45:32.119Z,3.50
2019-05-21T11:47:54.925Z,3.20
2019-05-21T11:50:22.358Z,3.80
2019-05-21T11:52:49.437Z,3.60
2019-05-21T11:55:16.550Z,3.40
2019-05-21T11:57:43.595Z,3.70
2019-05-21T12:00:11.622Z,3.70
2019-05-21T12:02:38.778Z,3.57
2019-05-21T12:05:06.173Z,4.50
2019-05-21T12:07:33.212Z,4.10
2019-05-21T12:10:00.270Z,3.90
2019-05-21T12:12:27.307Z,4.10
2019-05-21T12:14:54.255Z,4.10
2019-05-21T12:17:21.212Z,4.43
2019-05-21T12:19:48.336Z,5.00
2019-05-21T12:22:15.327Z,4.47
2019-05-21T12:24:42.365Z,4.20
2019-05-21T12:27:09.314Z,4.83
2019-05-21T12:29:36.417Z,4.50
2019-05-21T12:32:03.710Z,4.33
2019-05-21T12:34:30.674Z,3.93
2019-05-21T12:36:57.727Z,4.50
2019-05-21T12:39:24.772Z,3.77
2019-05-21T12:41:51.812Z,5.03
2019-05-21T12:44:18.812Z,6.00
2019-05-21T12:46:46.270Z,4.70
2019-05-21T12:49:13.377Z,4.13
2019-05-21T12:51:40.492Z,4.87
2019-05-21T12:54:07.564Z,5.00
2019-05-21T12:56:34.459Z,5.50
2019-05-21T12:59:01.589Z,4.63
2019-05-21T13:01:28.718Z,5.27
2019-05-21T13:03:55.757Z,5.43
2019-05-21T13:06:22.850Z,5.47
2019-05-21T13:08:50.204Z,5.80
2019-05-21T13:11:17.309Z,5.53
2019-05-21T13:13:46.105Z,5.63
2019-05-21T13:16:13.302Z,5.47
2019-05-21T13:18:40.638Z,5.27
2019-05-21T13:21:08.537Z,5.90
2019-05-21T13:23:35.803Z,5.80
2019-05-21T13:26:02.994Z,7.23
2019-05-21T13:28:49.750Z,6.13
2019-05-21T13:31:16.755Z,6.80
2019-05-21T13:33:44.022Z,6.40
2019-05-21T13:36:11.225Z,7.50
2019-05-21T13:38:38.379Z,6.70
2019-05-21T13:41:06.428Z,5.87
2019-05-21T13:43:33.529Z,6.77
2019-05-21T13:46:00.583Z,6.90
2019-05-21T13:48:27.676Z,6.97
2019-05-21T13:50:54.730Z,7.30
2019-05-21T13:53:21.770Z,6.43
2019-05-21T13:55:49.060Z,6.40
2019-05-21T13:58:16.390Z,6.33
2019-05-21T14:00:47.888Z,6.77
2019-05-21T14:03:15.105Z,6.10
2019-05-21T14:05:42.555Z,6.80
2019-05-21T14:08:25.016Z,5.80
2019-05-21T14:10:52.816Z,5.80
2019-05-21T14:13:19.894Z,6.53
2019-05-21T14:15:47.210Z,5.83
2019-05-21T14:18:14.542Z,5.97
2019-05-21T14:20:41.860Z,5.90
2019-05-21T14:23:09.151Z,6.93
2019-05-21T14:25:36.264Z,6.33
2019-05-21T14:28:03.591Z,6.37
2019-05-21T14:30:30.693Z,7.20
2019-05-21T14:32:57.942Z,6.20
2019-05-21T14:35:25.157Z,7.03
2019-05-21T14:37:52.419Z,6.20
2019-05-21T14:40:31.121Z,6.37
2019-05-21T14:42:59.489Z,6.60
2019-05-21T14:45:18.869Z,7.10
2019-05-21T14:47:46.019Z,6.60
2019-05-21T14:50:13.557Z,7.90
2019-05-21T14:52:40.936Z,6.83
2019-05-21T14:55:08.364Z,6.00
2019-05-21T14:57:35.644Z,6.10
2019-05-21T15:00:06.530Z,6.60
2019-05-21T15:02:36.911Z,6.23
2019-05-21T15:05:03.058Z,5.90
2019-05-21T15:07:30.250Z,6.63
2019-05-21T15:09:57.389Z,5.53
2019-05-21T15:12:24.790Z,6.33
2019-05-21T15:14:52.249Z,5.60
2019-05-21T15:17:19.644Z,6.63
2019-05-21T15:19:48.624Z,6.47
2019-05-21T15:22:16.231Z,6.50
2019-05-21T15:24:43.508Z,7.67
2019-05-21T15:27:11.158Z,6.47
2019-05-21T15:29:38.519Z,6.70
2019-05-21T15:32:06.057Z,7.33
2019-05-21T15:34:33.165Z,7.20
2019-05-21T15:37:00.602Z,7.83
2019-05-21T15:39:29.111Z,6.53
2019-05-21T15:41:56.247Z,6.43
2019-05-21T15:44:23.712Z,5.63
2019-05-21T15:46:52.054Z,7.80
2019-05-21T15:49:34.972Z,7.13
2019-05-21T15:51:54.116Z,6.70
2019-05-21T15:54:21.189Z,6.23
2019-05-21T15:56:48.208Z,6.60
2019-05-21T15:59:15.312Z,6.50
2019-05-21T16:01:42.525Z,5.97
2019-05-21T16:04:10.022Z,7.00
2019-05-21T16:06:37.032Z,5.70
2019-05-21T16:09:06.365Z,7.87
2019-05-21T16:11:33.589Z,6.37
2019-05-21T16:14:00.906Z,6.33
2019-05-21T16:16:29.132Z,7.70
2019-05-21T16:18:56.337Z,6.43
2019-05-21T16:21:26.434Z,7.10
2019-05-21T16:23:53.421Z,6.60
2019-05-21T16:26:23.382Z,6.87
2019-05-21T16:28:50.545Z,6.70
2019-05-21T16:31:18.087Z,5.30
2019-05-21T16:33:45.658Z,7.67
2019-05-21T16:36:13.037Z,8.90
2019-05-21T16:38:41.245Z,7.90
2019-05-21T16:41:08.697Z,7.80
2019-05-21T16:43:35.999Z,8.17
2019-05-21T16:46:03.199Z,10.03
2019-05-21T16:48:30.290Z,8.50
2019-05-21T16:50:57.615Z,10.57
2019-05-21T16:53:25.096Z,9.20
2019-05-21T16:55:52.493Z,9.40
2019-05-21T16:58:20.018Z,7.40
2019-05-21T17:00:47.681Z,9.03
2019-05-21T17:03:15.356Z,9.07
2019-05-21T17:05:42.738Z,9.73
2019-05-21T17:08:10.255Z,9.23
2019-05-21T17:10:37.844Z,8.70
2019-05-21T17:13:05.428Z,7.47
2019-05-21T17:15:34.394Z,8.20
2019-05-21T17:18:01.638Z,8.43
2019-05-21T17:20:28.811Z,7.87
2019-05-21T17:22:56.101Z,8.90
2019-05-21T17:25:23.328Z,11.07
2019-05-21T17:27:51.216Z,8.10
2019-05-21T17:30:18.958Z,9.17
2019-05-21T17:32:46.137Z,8.10
2019-05-21T17:35:13.341Z,8.03
2019-05-21T17:37:41.200Z,10.07
2019-05-21T17:40:08.641Z,9.83
2019-05-21T17:42:37.219Z,9.60
2019-05-21T17:45:05.432Z,9.00
2019-05-21T17:47:32.589Z,9.60
2019-05-21T17:49:59.673Z,10.70
2019-05-21T17:52:27.146Z,9.40
2019-05-21T17:54:57.116Z,9.60
2019-05-21T17:57:23.483Z,9.77
2019-05-21T17:59:50.737Z,10.40
2019-05-21T18:02:18.857Z,9.40
2019-05-21T18:04:46.595Z,10.27
2019-05-21T18:07:14.757Z,10.10
2019-05-21T18:09:41.988Z,9.37
2019-05-21T18:12:10.973Z,9.27
2019-05-21T18:14:38.476Z,10.60
2019-05-21T18:17:07.404Z,9.23
2019-05-21T18:19:34.977Z,9.50
2019-05-21T18:22:05.080Z,9.67
2019-05-21T18:24:32.257Z,9.60
2019-05-21T18:27:00.954Z,10.73
2019-05-21T18:29:28.450Z,9.37
2019-05-21T18:31:55.705Z,11.00
2019-05-21T18:34:22.852Z,10.50
2019-05-21T18:36:49.929Z,11.37
2019-05-21T18:39:18.036Z,10.57
2019-05-21T18:41:45.083Z,10.07
2019-05-21T18:44:12.188Z,10.00
2019-05-21T18:46:39.415Z,11.57
2019-05-21T18:49:06.499Z,10.90
2019-05-21T18:51:33.582Z,11.37
2019-05-21T18:54:00.633Z,10.20
2019-05-21T18:56:27.814Z,11.57
2019-05-21T18:58:54.840Z,11.67
2019-05-21T19:01:21.749Z,12.40
2019-05-21T19:03:48.873Z,10.87
2019-05-21T19:06:17.250Z,10.90
2019-05-21T19:08:45.155Z,11.10
2019-05-21T19:11:12.395Z,11.50
2019-05-21T19:13:39.497Z,12.07
2019-05-21T19:16:06.985Z,12.23
2019-05-21T19:18:34.092Z,12.50
2019-05-21T19:21:01.163Z,10.97
2019-05-21T19:23:28.144Z,11.40
2019-05-21T19:25:55.043Z,12.13
2019-05-21T19:28:22.124Z,10.40
2019-05-21T19:30:49.241Z,10.67
2019-05-21T19:33:16.461Z,12.50
2019-05-21T19:35:43.586Z,9.80
2019-05-21T19:38:10.598Z,11.60
2019-05-21T19:40:37.676Z,10.87
2019-05-21T19:43:04.805Z,10.17
2019-05-21T19:45:31.820Z,10.50
2019-05-21T19:47:58.792Z,10.43
2019-05-21T19:50:25.906Z,9.90
2019-05-21T19:52:52.854Z,10.20
2019-05-21T19:55:20.173Z,9.10
2019-05-21T19:57:47.386Z,10.80
2019-05-21T20:00:18.031Z,10.80
2019-05-21T20:02:48.398Z,10.07
2019-05-21T20:05:13.956Z,12.83
2019-05-21T20:07:41.082Z,10.63
2019-05-21T20:10:09.075Z,10.10
2019-05-21T20:12:36.526Z,11.17
2019-05-21T20:15:04.010Z,10.53
2019-05-21T20:17:31.388Z,10.53
2019-05-21T20:19:58.931Z,12.50
2019-05-21T20:22:26.870Z,12.53
2019-05-21T20:24:54.028Z,11.97
2019-05-21T20:27:21.319Z,11.43
2019-05-21T20:29:49.704Z,12.03
2019-05-21T20:32:18.681Z,13.53
2019-05-21T20:34:45.785Z,16.77
2019-05-21T20:37:15.353Z,12.10
2019-05-21T20:39:46.554Z,12.60
2019-05-21T20:42:19.099Z,11.80
2019-05-21T20:44:46.051Z,11.40
2019-05-21T20:47:15.488Z,9.70
2019-05-21T20:49:45.609Z,11.23
2019-05-21T20:52:18.636Z,15.23
2019-05-21T20:54:43.276Z,13.60
2019-05-21T20:57:11.073Z,16.33
2019-05-21T20:59:38.340Z,15.67
2019-05-21T21:02:08.840Z,15.03
2019-05-21T21:04:35.899Z,14.57
2019-05-21T21:07:03.292Z,17.43
2019-05-21T21:09:30.942Z,16.40
2019-05-21T21:11:58.077Z,14.23
2019-05-21T21:14:25.949Z,14.23
2019-05-21T21:16:54.989Z,18.53
2019-05-21T21:19:22.564Z,17.17
2019-05-21T21:21:50.001Z,17.80
2019-05-21T21:24:18.500Z,15.63
2019-05-21T21:26:45.564Z,18.00
2019-05-21T21:29:12.707Z,18.27
2019-05-21T21:31:40.026Z,18.80
2019-05-21T21:34:07.545Z,18.47
2019-05-21T21:36:34.818Z,20.27
2019-05-21T21:39:02.056Z,18.83
2019-05-21T21:41:29.340Z,16.70
2019-05-21T21:43:56.343Z,17.33
2019-05-21T21:46:23.535Z,17.83
2019-05-21T21:48:51.309Z,16.80
2019-05-21T21:51:18.552Z,17.63
2019-05-21T21:53:45.609Z,19.50
2019-05-21T21:56:12.713Z,16.50
2019-05-21T21:58:39.967Z,19.37
2019-05-21T22:01:35.550Z,17.73
2019-05-21T22:04:06.572Z,17.07
2019-05-21T22:06:36.649Z,16.80
2019-05-21T22:09:06.694Z,16.33
2019-05-21T22:11:34.173Z,17.30
2019-05-21T22:14:01.918Z,16.27
2019-05-21T22:16:29.461Z,16.30
2019-05-21T22:18:56.634Z,13.63
2019-05-21T22:21:23.559Z,17.93
2019-05-21T22:23:50.680Z,15.37
2019-05-21T22:26:18.367Z,16.97
2019-05-21T22:28:45.520Z,15.87
2019-05-21T22:31:12.588Z,13.83
2019-05-21T22:33:39.632Z,16.23
2019-05-21T22:36:07.049Z,16.13
2019-05-21T22:38:34.043Z,16.53
2019-05-21T22:41:01.058Z,17.00
2019-05-21T22:43:29.830Z,18.63
2019-05-21T22:45:56.836Z,16.70
2019-05-21T22:48:23.952Z,16.10
2019-05-21T22:50:51.041Z,15.43
2019-05-21T22:53:18.021Z,17.00
2019-05-21T22:55:45.037Z,18.03
2019-05-21T22:58:12.461Z,17.20
2019-05-21T23:00:39.826Z,16.43
2019-05-21T23:03:07.318Z,18.33
2019-05-21T23:05:34.413Z,16.80
2019-05-21T23:08:02.105Z,16.30
2019-05-21T23:10:29.667Z,17.63
2019-05-21T23:12:57.153Z,17.53
2019-05-21T23:15:25.482Z,18.70
2019-05-21T23:17:52.883Z,18.60
2019-05-21T23:20:22.588Z,19.90
2019-05-21T23:22:51.999Z,17.53
2019-05-21T23:25:19.428Z,16.27
2019-05-21T23:27:47.956Z,18.90
2019-05-21T23:30:16.911Z,19.53
2019-05-21T23:32:44.792Z,19.50
2019-05-21T23:35:13.246Z,16.60
2019-05-21T23:37:42.086Z,15.80
2019-05-21T23:40:11.088Z,18.30
2019-05-21T23:42:39.393Z,17.30
2019-05-21T23:45:07.870Z,16.33
2019-05-21T23:47:35.128Z,18.00
2019-05-21T23:50:02.196Z,18.07
2019-05-21T23:52:30.458Z,17.83
2019-05-21T23:54:57.707Z,16.87
2019-05-21T23:57:26.614Z,17.77
2019-05-21T23:59:54.017Z,18.80
